Strona główna
METAR-TAF:

METAR-TAF

Lotnisko :

Port lotniczy Sanya-Phoenix

Sanya, Chiny

Szerokość geograficzna: 18-18N, Długość geograficzna: 109-24E, wysokość: 27 m

Aktualna obserwacja pogody

Raport powstał 22 minut temu, godzina 04:00 UTC
Wiatr 8 kt od południowo-południowy wschód, zmienny między wschodnio-południowy wschód i południe
Temperatura 30°C
Wilgotność 70%
Ciśnienie 1011 hPa
Widzialność 10 km lub więcej
Rozproszone chmury na wysokości 2500 ft

METAR: ZJSY 300400Z 15004MPS 120V180 9999 SCT025 30/24 Q1011 NOSIG

czas: 12:22 (04:22 UTC)

Prognoza

Raport powstał 7 godziny i 19 minut temu, godzina 21:03 UTC
Prognoza ważna od 30 godzina 00 UTC do 30 godzina 24 UTC
Wiatr 8 kt od wschodnio-południowy wschód
Widzialność 10 km lub więcej
Rozproszone chmury na wysokości 2000 ft

TAF: ZJSY 292103Z 3000/3024 12004MPS 9999 SCT020 TX31/3006Z TN25/3021Z

Obserwacja i prognoza pogody dla ponad 4000 lotnisk (raport METAR i TAF).

Dostępne stacje oznaczono żółtymi i czerwonymi punktami na mapie.

Najedź kursorem aby zobaczyć nazwę stacji.

Kliknij aby zobaczyć obserwacje i prognozy pogody.

Aby zmienić mapę: kliknij na zielony przycisk z czarnym krzyżykiem, aby powiększyć; na zielony przycisk z myślnikiem, aby pomniejszyć; na zielone strzałki, aby przejść do map sąsiednich.


METAR-TAF: